Terminal Aerodrome Forecast
Issued by NWS

Home | Current Version | Previous Version | Text Only | Print | Product List | Glossary On
Versions: 1 2 3 4 5 6 7 8 9 10 11 12 13 14 15 16 17 18 19 20 21 22 23 24 25 26 27 28 29 30
000
FTUS45 KGJT 251137
TAFMTJ
TAF
KMTJ 251137Z 2512/2612 10006KT P6SM VCSH SCT070 BKN090
     FM251600 17012KT P6SM VCSH SCT050 OVC080
     FM252000 26008KT 2SM -SN BR OVC020
     FM260300 14005KT P6SM VCSH SCT020 OVC040
     FM260600 14005KT P6SM VCSH SCT015 OVC040=

USA.gov is the U.S. government's official web portal to all federal, state and local government web resources and services.